Time;durP1;ratioP1;P1;durP2;ratioP2;P2;SDS_P1;SDS_P2;PMS_P1;PMS_P2;Temp;Humidity;BMP_temperature;BMP_pressure;BME280_temperature;BME280_humidity;BME280_pressure;Samples;Min_cycle;Max_cycle;Signal;HPM_P1;HPM_P2
2023/01/22 06:50:59;;;;;;;15.50;9.43;;;;;;;;;;5382109;23;20232;-71
2023/01/22 06:53:26;;;;;;;15.50;8.85;;;;;;;;;;4955847;29;20207;-71
2023/01/22 06:55:53;;;;;;;15.77;9.13;;;;;;;;;;4955791;29;20204;-71
2023/01/22 06:58:20;;;;;;;14.68;8.93;;;;;;;;;;4956634;28;20290;-71
2023/01/22 07:00:47;;;;;;;13.20;8.38;;;;;;;;;;4959082;29;20303;-71
2023/01/22 07:03:14;;;;;;;11.68;8.63;;;;;;;;;;4958972;29;20224;-71
2023/01/22 07:05:41;;;;;;;9.57;8.20;;;;;;;;;;4959141;29;20675;-73
2023/01/22 07:08:10;;;;;;;10.85;8.57;;;;;;;;;;4958758;29;20208;-73
2023/01/22 07:10:37;;;;;;;11.63;8.63;;;;;;;;;;4958733;29;20227;-73
2023/01/22 07:13:05;;;;;;;11.25;8.35;;;;;;;;;;4958366;29;20667;-71
2023/01/22 07:15:32;;;;;;;10.93;8.00;;;;;;;;;;4958776;29;20231;-71
2023/01/22 07:17:59;;;;;;;11.93;7.50;;;;;;;;;;4958513;29;20251;-71
2023/01/22 07:20:26;;;;;;;10.35;7.90;;;;;;;;;;4958511;29;20232;-72
2023/01/22 07:22:53;;;;;;;10.60;7.25;;;;;;;;;;4958345;29;20691;-72
2023/01/22 07:25:22;;;;;;;10.38;7.80;;;;;;;;;;4958498;29;20219;-72
2023/01/22 07:27:49;;;;;;;10.15;7.47;;;;;;;;;;4958552;29;20259;-70
2023/01/22 07:30:16;;;;;;;12.32;7.75;;;;;;;;;;4957948;29;20627;-70
2023/01/22 07:32:43;;;;;;;12.05;7.18;;;;;;;;;;4958677;29;20255;-71
2023/01/22 07:35:10;;;;;;;8.38;7.40;;;;;;;;;;4958343;29;20215;-71
2023/01/22 07:37:37;;;;;;;12.57;8.25;;;;;;;;;;4958210;29;20672;-70
2023/01/22 07:40:05;;;;;;;11.80;8.07;;;;;;;;;;4958311;29;20274;-71
2023/01/22 07:42:34;;;;;;;8.77;7.07;;;;;;;;;;4958444;29;20242;-71
2023/01/22 07:45:01;;;;;;;7.82;7.03;;;;;;;;;;4958511;29;20212;-71
2023/01/22 07:47:28;;;;;;;8.70;6.88;;;;;;;;;;4958631;29;20219;-71
2023/01/22 07:49:55;;;;;;;9.50;7.40;;;;;;;;;;4958532;29;20224;-71
2023/01/22 07:52:22;;;;;;;8.82;6.75;;;;;;;;;;4958689;29;20208;-71
2023/01/22 07:54:49;;;;;;;11.63;8.13;;;;;;;;;;4958644;29;20636;-71
2023/01/22 07:57:17;;;;;;;13.75;9.32;;;;;;;;;;4958219;29;20263;-69
2023/01/22 07:59:45;;;;;;;10.07;8.45;;;;;;;;;;4957885;29;20203;-72
2023/01/22 08:02:13;;;;;;;10.50;7.75;;;;;;;;;;4957892;29;20230;-70
2023/01/22 08:04:40;;;;;;;9.07;7.55;;;;;;;;;;4957653;29;20216;-70
2023/01/22 08:07:10;;;;;;;9.82;7.97;;;;;;;;;;4957433;29;20676;-71
2023/01/22 08:09:37;;;;;;;10.65;7.85;;;;;;;;;;4957091;28;20212;-71
2023/01/22 08:12:04;;;;;;;9.23;7.00;;;;;;;;;;4957355;29;20575;-71
2023/01/22 08:14:31;;;;;;;12.02;8.57;;;;;;;;;;4957656;29;20388;-71
2023/01/22 08:17:00;;;;;;;15.68;10.48;;;;;;;;;;4957654;29;20207;-71
2023/01/22 08:19:28;;;;;;;18.90;11.68;;;;;;;;;;4957621;29;20204;-70
2023/01/22 08:21:55;;;;;;;16.95;10.45;;;;;;;;;;4957385;29;20607;-72
2023/01/22 08:24:22;;;;;;;30.50;15.13;;;;;;;;;;4957488;29;20227;-72
2023/01/22 08:26:49;;;;;;;18.33;11.27;;;;;;;;;;4957455;29;20274;-72
2023/01/22 08:29:16;;;;;;;14.10;9.20;;;;;;;;;;4957498;29;20251;-73
2023/01/22 08:31:43;;;;;;;13.77;8.48;;;;;;;;;;4957206;29;20224;-73
2023/01/22 08:34:11;;;;;;;10.73;7.43;;;;;;;;;;4957138;29;20200;-72
2023/01/22 08:36:38;;;;;;;13.10;8.93;;;;;;;;;;4957217;29;20204;-72
2023/01/22 08:39:06;;;;;;;12.18;8.60;;;;;;;;;;4956953;29;20730;-72
2023/01/22 08:41:33;;;;;;;9.75;8.20;;;;;;;;;;4957148;29;20228;-72
2023/01/22 08:44:00;;;;;;;8.82;7.47;;;;;;;;;;4956724;29;20227;-72
2023/01/22 08:46:27;;;;;;;12.20;8.52;;;;;;;;;;4957038;29;20215;-72
2023/01/22 08:48:54;;;;;;;13.65;7.90;;;;;;;;;;4957131;29;20208;-72
2023/01/22 08:51:23;;;;;;;9.82;7.95;;;;;;;;;;4956617;29;20707;-72
2023/01/22 08:53:50;;;;;;;12.45;8.23;;;;;;;;;;4956521;29;20235;-72
2023/01/22 08:56:17;;;;;;;11.50;8.15;;;;;;;;;;4956805;29;20211;-72
2023/01/22 08:58:44;;;;;;;17.67;10.20;;;;;;;;;;4956836;29;20208;-72
2023/01/22 09:01:15;;;;;;;12.07;8.43;;;;;;;;;;4956770;29;20220;-72
2023/01/22 09:03:42;;;;;;;9.15;7.03;;;;;;;;;;4956715;29;20243;-72
2023/01/22 09:06:10;;;;;;;15.45;9.02;;;;;;;;;;4956729;29;20239;-72
2023/01/22 09:08:38;;;;;;;11.52;7.95;;;;;;;;;;4956643;29;20203;-72
2023/01/22 09:11:06;;;;;;;10.13;7.85;;;;;;;;;;4956660;29;20231;-73
2023/01/22 09:13:33;;;;;;;8.38;7.15;;;;;;;;;;4956540;29;20211;-72
2023/01/22 09:16:01;;;;;;;8.70;6.35;;;;;;;;;;4956065;29;20702;-71
2023/01/22 09:18:28;;;;;;;6.30;5.40;;;;;;;;;;4956525;29;20200;-73
2023/01/22 09:20:56;;;;;;;6.45;5.78;;;;;;;;;;4955535;28;20275;-73
2023/01/22 09:23:24;;;;;;;8.20;5.60;;;;;;;;;;4956453;29;20257;-72
2023/01/22 09:25:52;;;;;;;5.00;4.57;;;;;;;;;;4956144;29;20612;-74
2023/01/22 09:28:19;;;;;;;5.40;4.95;;;;;;;;;;4956318;29;20215;-73
2023/01/22 09:30:46;;;;;;;7.63;5.50;;;;;;;;;;4956230;29;20231;-74
2023/01/22 09:33:13;;;;;;;5.40;4.90;;;;;;;;;;4956498;29;20227;-73
2023/01/22 09:35:40;;;;;;;5.97;5.18;;;;;;;;;;4956123;29;20204;-71
2023/01/22 09:38:07;;;;;;;5.65;5.15;;;;;;;;;;4955835;29;20637;-73
2023/01/22 09:40:38;;;;;;;7.80;6.05;;;;;;;;;;4955985;29;20219;-71
2023/01/22 09:43:07;;;;;;;7.60;6.05;;;;;;;;;;4955669;29;20244;-73
2023/01/22 09:45:37;;;;;;;9.85;6.05;;;;;;;;;;4955672;29;20667;-73
2023/01/22 09:48:08;;;;;;;5.80;4.53;;;;;;;;;;4956383;29;20192;-73
2023/01/22 09:50:35;;;;;;;5.68;5.05;;;;;;;;;;4956070;29;20230;-72
2023/01/22 09:53:05;;;;;;;5.80;4.97;;;;;;;;;;4956062;29;20229;-71
2023/01/22 09:55:34;;;;;;;5.20;4.70;;;;;;;;;;4955927;29;20240;-71
2023/01/22 09:58:04;;;;;;;11.32;6.95;;;;;;;;;;4955669;29;20203;-73
2023/01/22 10:00:39;;;;;;;10.65;6.47;;;;;;;;;;4957409;29;20224;-71
2023/01/22 10:03:10;;;;;;;8.68;6.75;;;;;;;;;;4960221;29;20235;-72
2023/01/22 10:05:39;;;;;;;6.03;4.72;;;;;;;;;;4960875;29;20216;-69
2023/01/22 10:08:07;;;;;;;6.47;5.03;;;;;;;;;;4960159;29;20613;-70
2023/01/22 10:10:35;;;;;;;4.25;3.90;;;;;;;;;;4960318;29;20235;-72
2023/01/22 10:13:10;;;;;;;4.28;3.88;;;;;;;;;;4960396;29;20204;-72
2023/01/22 10:15:39;;;;;;;4.40;4.00;;;;;;;;;;4961333;29;20191;-72
2023/01/22 10:18:16;;;;;;;4.55;4.15;;;;;;;;;;4960444;29;20208;-72
2023/01/22 10:20:44;;;;;;;4.22;3.83;;;;;;;;;;4959774;29;20707;-72
2023/01/22 10:23:17;;;;;;;3.53;3.22;;;;;;;;;;4960085;29;20571;-72
2023/01/22 10:25:44;;;;;;;2.67;2.58;;;;;;;;;;4959531;29;20184;-72
2023/01/22 10:28:12;;;;;;;2.97;2.78;;;;;;;;;;4959136;29;20661;-73
2023/01/22 10:30:47;;;;;;;3.05;2.85;;;;;;;;;;4959907;29;20231;-72
2023/01/22 10:33:17;;;;;;;3.00;2.80;;;;;;;;;;4963631;28;20276;-73
2023/01/22 10:35:46;;;;;;;3.10;2.90;;;;;;;;;;4962108;29;20207;-72
2023/01/22 10:38:21;;;;;;;2.80;2.58;;;;;;;;;;4959128;29;20207;-72
2023/01/22 10:40:52;;;;;;;8.23;5.50;;;;;;;;;;4959176;29;20633;-72
2023/01/22 10:43:19;;;;;;;2.20;2.10;;;;;;;;;;4959140;29;20188;-72
2023/01/22 10:45:55;;;;;;;3.40;2.67;;;;;;;;;;4959322;29;20302;-71
2023/01/22 10:48:22;;;;;;;2.97;2.78;;;;;;;;;;4959163;29;20203;-71
2023/01/22 10:50:59;;;;;;;3.30;3.10;;;;;;;;;;4958974;29;20232;-70
2023/01/22 10:53:29;;;;;;;2.95;2.75;;;;;;;;;;4958870;29;20215;-70
2023/01/22 10:55:58;;;;;;;3.97;2.92;;;;;;;;;;4959037;29;20208;-69
2023/01/22 10:58:26;;;;;;;2.90;2.80;;;;;;;;;;4959184;29;20207;-71
2023/01/22 11:00:58;;;;;;;2.58;2.47;;;;;;;;;;4959050;29;20227;-72
2023/01/22 11:03:29;;;;;;;2.40;2.20;;;;;;;;;;4959158;29;20235;-73
2023/01/22 11:05:58;;;;;;;2.80;2.60;;;;;;;;;;4959058;29;20188;-73
2023/01/22 11:08:29;;;;;;;2.60;2.40;;;;;;;;;;4959115;29;20200;-73
2023/01/22 11:10:58;;;;;;;2.55;2.38;;;;;;;;;;4959276;29;20231;-73
2023/01/22 11:13:29;;;;;;;2.33;2.20;;;;;;;;;;4959027;29;20200;-73
2023/01/22 11:16:02;;;;;;;3.90;2.53;;;;;;;;;;4958885;29;20195;-74
2023/01/22 11:18:32;;;;;;;2.63;2.50;;;;;;;;;;4958856;29;20247;-74
2023/01/22 11:21:00;;;;;;;2.83;2.63;;;;;;;;;;4958813;29;20224;-73
2023/01/22 11:23:33;;;;;;;2.70;2.55;;;;;;;;;;4958819;29;20231;-73
2023/01/22 11:26:03;;;;;;;2.95;2.75;;;;;;;;;;4958896;29;20188;-74
2023/01/22 11:28:40;;;;;;;2.90;2.78;;;;;;;;;;4958406;29;20690;-74
2023/01/22 11:31:15;;;;;;;2.25;2.15;;;;;;;;;;4958681;29;20227;-73
2023/01/22 11:33:48;;;;;;;2.78;2.53;;;;;;;;;;4958483;29;20188;-73
2023/01/22 11:36:19;;;;;;;2.72;2.53;;;;;;;;;;4958275;29;20640;-73
2023/01/22 11:38:50;;;;;;;4.45;4.03;;;;;;;;;;4959286;29;20193;-74
2023/01/22 11:41:31;;;;;;;3.17;2.88;;;;;;;;;;4958429;29;20228;-73
2023/01/22 11:44:09;;;;;;;3.22;2.90;;;;;;;;;;4955002;28;20223;-73
2023/01/22 11:46:41;;;;;;;4.03;3.70;;;;;;;;;;4958268;29;20239;-73
2023/01/22 11:49:18;;;;;;;3.28;3.00;;;;;;;;;;4958436;29;20188;-73
2023/01/22 11:51:48;;;;;;;3.50;3.20;;;;;;;;;;4958329;29;20258;-73
2023/01/22 11:54:36;;;;;;;3.53;3.22;;;;;;;;;;4957871;29;20212;-73
2023/01/22 11:57:12;;;;;;;4.22;3.83;;;;;;;;;;4953630;29;20204;-73
2023/01/22 11:59:52;;;;;;;4.22;3.88;;;;;;;;;;4957693;29;20540;-74
2023/01/22 12:02:30;;;;;;;4.28;3.97;;;;;;;;;;4957925;29;20707;-73
2023/01/22 12:05:04;;;;;;;4.38;3.97;;;;;;;;;;4958087;29;20212;-74
2023/01/22 12:07:40;;;;;;;6.93;5.90;;;;;;;;;;4957944;29;20191;-73
2023/01/22 12:10:14;;;;;;;6.45;5.47;;;;;;;;;;4958155;29;20223;-73
2023/01/22 12:12:44;;;;;;;6.90;5.47;;;;;;;;;;4958019;29;20191;-72
2023/01/22 12:15:20;;;;;;;4.68;4.28;;;;;;;;;;4958215;29;20207;-73
2023/01/22 12:17:53;;;;;;;4.05;3.75;;;;;;;;;;4957790;29;20195;-72
2023/01/22 12:20:35;;;;;;;4.93;4.40;;;;;;;;;;4957932;29;20635;-72
2023/01/22 12:23:05;;;;;;;6.03;4.50;;;;;;;;;;4956749;29;20208;-72
2023/01/22 12:25:36;;;;;;;4.10;3.70;;;;;;;;;;4958137;29;20643;-72
2023/01/22 12:28:09;;;;;;;4.07;3.78;;;;;;;;;;4957970;29;20644;-72
2023/01/22 12:30:42;;;;;;;4.00;3.70;;;;;;;;;;4957982;29;20231;-72
2023/01/22 12:33:13;;;;;;;4.32;3.92;;;;;;;;;;4958128;29;20192;-72
2023/01/22 12:35:40;;;;;;;4.75;4.35;;;;;;;;;;4958065;29;20192;-72
2023/01/22 12:38:11;;;;;;;6.13;5.53;;;;;;;;;;4958038;29;20208;-72
2023/01/22 12:40:49;;;;;;;7.20;5.10;;;;;;;;;;4957681;29;20232;-72
2023/01/22 12:43:19;;;;;;;5.80;5.07;;;;;;;;;;4958323;29;20188;-73
2023/01/22 12:45:51;;;;;;;19.80;10.93;;;;;;;;;;4957931;29;20208;-73
2023/01/22 12:48:23;;;;;;;14.52;8.82;;;;;;;;;;4958176;29;20188;-72
2023/01/22 12:50:51;;;;;;;10.88;7.88;;;;;;;;;;4958065;29;20286;-72
2023/01/22 12:53:22;;;;;;;9.35;6.72;;;;;;;;;;4956569;29;20211;-71
2023/01/22 12:55:57;;;;;;;6.38;5.78;;;;;;;;;;4957016;28;20236;-72
2023/01/22 12:58:25;;;;;;;5.70;5.20;;;;;;;;;;4959317;29;20195;-71
2023/01/22 13:01:00;;;;;;;5.68;5.18;;;;;;;;;;4957048;29;20256;-72
2023/01/22 13:03:28;;;;;;;5.35;4.93;;;;;;;;;;4957822;29;20195;-72
2023/01/22 13:05:56;;;;;;;5.70;5.13;;;;;;;;;;4957667;29;20231;-71
2023/01/22 13:08:26;;;;;;;5.25;4.80;;;;;;;;;;4957421;29;20702;-71
2023/01/22 13:10:54;;;;;;;5.15;4.75;;;;;;;;;;4958081;29;20224;-71
2023/01/22 13:13:24;;;;;;;6.03;5.43;;;;;;;;;;4957614;29;20204;-71
2023/01/22 13:15:52;;;;;;;5.38;4.88;;;;;;;;;;4957462;29;20200;-71
2023/01/22 13:18:21;;;;;;;7.43;6.35;;;;;;;;;;4957665;29;20564;-71
2023/01/22 13:20:56;;;;;;;10.15;6.85;;;;;;;;;;4957249;29;20223;-71
2023/01/22 13:23:23;;;;;;;6.72;6.07;;;;;;;;;;4956903;29;20640;-71
2023/01/22 13:25:54;;;;;;;11.52;7.82;;;;;;;;;;4957069;29;20224;-71
2023/01/22 13:28:21;;;;;;;8.90;6.57;;;;;;;;;;4956870;29;20398;-71
2023/01/22 13:30:56;;;;;;;10.10;7.05;;;;;;;;;;4956428;29;20352;-71
2023/01/22 13:33:23;;;;;;;7.63;6.18;;;;;;;;;;4957576;29;20188;-71
2023/01/22 13:35:51;;;;;;;7.72;5.20;;;;;;;;;;4957722;29;20208;-72
2023/01/22 13:38:19;;;;;;;5.05;4.28;;;;;;;;;;4957305;29;20588;-72
2023/01/22 13:40:48;;;;;;;5.85;5.10;;;;;;;;;;4958442;29;20262;-72
2023/01/22 13:43:17;;;;;;;6.75;4.70;;;;;;;;;;4957567;29;20263;-71
2023/01/22 13:45:44;;;;;;;5.47;4.68;;;;;;;;;;4956895;29;20699;-71
2023/01/22 13:48:19;;;;;;;5.50;3.95;;;;;;;;;;4960986;29;20223;-71
2023/01/22 13:50:47;;;;;;;5.72;4.75;;;;;;;;;;4962023;29;20294;-71
2023/01/22 13:53:26;;;;;;;5.35;4.85;;;;;;;;;;4962600;29;20211;-71
2023/01/22 13:55:53;;;;;;;5.97;5.38;;;;;;;;;;4963884;29;20184;-72
2023/01/22 13:58:28;;;;;;;4.90;4.47;;;;;;;;;;4962551;29;20210;-72
2023/01/22 14:00:56;;;;;;;4.20;3.78;;;;;;;;;;4960322;29;20226;-71
2023/01/22 14:03:25;;;;;;;4.25;3.90;;;;;;;;;;4960749;29;20214;-71
2023/01/22 14:06:02;;;;;;;4.60;4.20;;;;;;;;;;4960893;29;20641;-71
2023/01/22 14:08:30;;;;;;;4.30;3.90;;;;;;;;;;4960007;28;20192;-72
2023/01/22 14:10:58;;;;;;;4.10;3.78;;;;;;;;;;4960535;29;20223;-69
2023/01/22 14:13:26;;;;;;;5.57;4.68;;;;;;;;;;4960465;29;20227;-69
2023/01/22 14:15:56;;;;;;;4.97;4.35;;;;;;;;;;4960271;29;20212;-69
2023/01/22 14:18:23;;;;;;;5.68;4.65;;;;;;;;;;4959634;29;20258;-69
2023/01/22 14:20:50;;;;;;;3.55;3.33;;;;;;;;;;4959348;29;20295;-69
2023/01/22 14:23:18;;;;;;;4.47;4.07;;;;;;;;;;4956941;29;20200;-69
2023/01/22 14:25:47;;;;;;;4.30;3.92;;;;;;;;;;4959996;29;20230;-69
2023/01/22 14:28:15;;;;;;;4.53;4.13;;;;;;;;;;4959618;29;20267;-69
2023/01/22 14:30:42;;;;;;;4.55;4.15;;;;;;;;;;4959844;29;20252;-69
2023/01/22 14:33:12;;;;;;;6.70;4.00;;;;;;;;;;4960579;29;20199;-69
2023/01/22 14:35:40;;;;;;;4.88;4.40;;;;;;;;;;4960709;29;20225;-70
2023/01/22 14:38:07;;;;;;;6.18;4.75;;;;;;;;;;4960371;29;20211;-75
2023/01/22 14:40:35;;;;;;;4.60;4.25;;;;;;;;;;4959331;29;20220;-69
2023/01/22 14:43:04;;;;;;;5.72;4.95;;;;;;;;;;4960527;29;20207;-69
2023/01/22 14:45:31;;;;;;;4.20;3.90;;;;;;;;;;4956051;29;20230;-74
2023/01/22 14:47:59;;;;;;;5.63;4.78;;;;;;;;;;4955032;29;20576;-70
2023/01/22 14:50:26;;;;;;;4.97;3.95;;;;;;;;;;4955761;29;20231;-73
2023/01/22 14:52:53;;;;;;;5.80;4.35;;;;;;;;;;4955496;29;20216;-76
2023/01/22 14:55:20;;;;;;;4.32;3.80;;;;;;;;;;4956123;29;20208;-75
2023/01/22 14:57:47;;;;;;;4.20;3.80;;;;;;;;;;4956170;29;20211;-74
2023/01/22 15:00:16;;;;;;;5.53;4.93;;;;;;;;;;4955054;29;20223;-71
2023/01/22 15:02:44;;;;;;;4.80;4.32;;;;;;;;;;4954815;29;20615;-70
2023/01/22 15:05:12;;;;;;;6.18;4.50;;;;;;;;;;4954952;29;20224;-69
2023/01/22 15:07:39;;;;;;;5.20;4.50;;;;;;;;;;4955106;29;20212;-70
2023/01/22 15:10:07;;;;;;;4.60;4.20;;;;;;;;;;4954634;29;20251;-70
2023/01/22 15:12:35;;;;;;;5.38;4.45;;;;;;;;;;4955097;29;20300;-69
2023/01/22 15:15:02;;;;;;;5.63;4.90;;;;;;;;;;4955018;29;20204;-69
2023/01/22 15:17:29;;;;;;;5.75;5.07;;;;;;;;;;4954962;29;20204;-69
2023/01/22 15:19:57;;;;;;;7.03;5.28;;;;;;;;;;4956521;28;20249;-69
2023/01/22 15:22:24;;;;;;;5.82;5.00;;;;;;;;;;4958546;29;20208;-70
2023/01/22 15:24:51;;;;;;;7.95;5.00;;;;;;;;;;4958359;29;20207;-69
2023/01/22 15:27:19;;;;;;;9.00;6.47;;;;;;;;;;4958534;29;20203;-69
2023/01/22 15:29:46;;;;;;;7.30;6.55;;;;;;;;;;4957889;29;20628;-69
2023/01/22 15:32:13;;;;;;;8.65;6.75;;;;;;;;;;4958258;29;20211;-70
2023/01/22 15:34:40;;;;;;;8.50;6.45;;;;;;;;;;4958092;29;20211;-70
2023/01/22 15:37:12;;;;;;;10.50;8.02;;;;;;;;;;4958019;29;20204;-70
2023/01/22 15:39:39;;;;;;;12.90;9.07;;;;;;;;;;4957912;29;20255;-70
2023/01/22 15:42:06;;;;;;;28.35;16.65;;;;;;;;;;4957946;29;20208;-70
2023/01/22 15:44:33;;;;;;;18.73;12.68;;;;;;;;;;4957699;29;20200;-69
2023/01/22 15:47:00;;;;;;;13.55;10.32;;;;;;;;;;4957812;29;20220;-69
2023/01/22 15:49:27;;;;;;;10.00;8.38;;;;;;;;;;4957932;29;20278;-70
2023/01/22 15:51:54;;;;;;;11.38;8.68;;;;;;;;;;4957756;29;20212;-70
2023/01/22 15:54:23;;;;;;;11.07;9.48;;;;;;;;;;4957327;29;20267;-70
2023/01/22 15:56:50;;;;;;;11.55;8.27;;;;;;;;;;4957670;29;20208;-70
2023/01/22 15:59:17;;;;;;;9.60;8.00;;;;;;;;;;4957635;29;20204;-70
2023/01/22 16:01:44;;;;;;;10.05;8.27;;;;;;;;;;4957013;29;20228;-70
2023/01/22 16:04:11;;;;;;;10.63;8.25;;;;;;;;;;4957552;29;20227;-70
2023/01/22 16:06:38;;;;;;;12.32;8.50;;;;;;;;;;4956587;29;20711;-70
2023/01/22 16:09:06;;;;;;;11.18;8.68;;;;;;;;;;4956921;29;20207;-70
2023/01/22 16:11:35;;;;;;;11.50;8.60;;;;;;;;;;4957423;29;20275;-70
2023/01/22 16:14:02;;;;;;;15.60;10.27;;;;;;;;;;4957464;29;20211;-70
2023/01/22 16:16:30;;;;;;;13.77;9.98;;;;;;;;;;4957471;29;20207;-70
2023/01/22 16:18:57;;;;;;;13.57;9.82;;;;;;;;;;4957413;29;20214;-69
2023/01/22 16:21:25;;;;;;;12.98;9.85;;;;;;;;;;4957061;29;20741;-70
2023/01/22 16:23:53;;;;;;;11.95;9.27;;;;;;;;;;4957500;29;20212;-71
2023/01/22 16:26:22;;;;;;;14.32;9.85;;;;;;;;;;4957184;29;20271;-71
2023/01/22 16:28:51;;;;;;;15.05;9.93;;;;;;;;;;4956978;29;20231;-71
2023/01/22 16:31:19;;;;;;;10.63;8.55;;;;;;;;;;4956885;28;20220;-71
2023/01/22 16:33:48;;;;;;;9.90;8.40;;;;;;;;;;4957366;29;20213;-71
2023/01/22 16:36:16;;;;;;;9.38;7.97;;;;;;;;;;4987313;23;20234;-74
2023/01/22 16:38:43;;;;;;;11.32;8.38;;;;;;;;;;4976894;28;20210;-73
2023/01/22 16:41:20;;;;;;;10.63;8.13;;;;;;;;;;4976649;28;20210;-74
2023/01/22 16:43:47;;;;;;;10.75;9.27;;;;;;;;;;4976641;28;20198;-73
2023/01/22 16:46:17;;;;;;;10.18;8.30;;;;;;;;;;4976391;28;20231;-74
2023/01/22 16:48:44;;;;;;;9.45;7.63;;;;;;;;;;4976526;28;20207;-74
2023/01/22 16:51:15;;;;;;;10.48;8.80;;;;;;;;;;4976423;28;20203;-74
2023/01/22 16:53:42;;;;;;;11.35;8.85;;;;;;;;;;4976680;28;20191;-74
2023/01/22 16:56:09;;;;;;;11.52;8.98;;;;;;;;;;4976244;28;20216;-74
2023/01/22 16:58:36;;;;;;;14.40;9.40;;;;;;;;;;4976232;28;20207;-74
2023/01/22 17:01:03;;;;;;;11.98;8.88;;;;;;;;;;4976144;28;20288;-73
2023/01/22 17:03:32;;;;;;;13.43;9.30;;;;;;;;;;4976322;28;20191;-73
2023/01/22 17:05:59;;;;;;;13.18;9.18;;;;;;;;;;4976563;28;20227;-74
2023/01/22 17:08:26;;;;;;;10.48;8.05;;;;;;;;;;4976142;28;20214;-74
2023/01/22 17:10:53;;;;;;;10.57;8.13;;;;;;;;;;4976446;28;20250;-73
2023/01/22 17:13:21;;;;;;;10.95;8.77;;;;;;;;;;4978346;28;20207;-77
2023/01/22 17:15:50;;;;;;;11.45;8.60;;;;;;;;;;4978165;28;20215;-75
2023/01/22 17:18:18;;;;;;;14.45;10.00;;;;;;;;;;4976714;28;20289;-71
2023/01/22 17:20:46;;;;;;;12.63;10.35;;;;;;;;;;4976036;28;20266;-74
2023/01/22 17:23:13;;;;;;;15.70;10.48;;;;;;;;;;4975860;28;20301;-72
2023/01/22 17:25:41;;;;;;;11.32;8.40;;;;;;;;;;4975525;28;20231;-70
2023/01/22 17:28:08;;;;;;;10.65;8.30;;;;;;;;;;4975615;28;20293;-72
2023/01/22 17:30:35;;;;;;;9.27;7.47;;;;;;;;;;4975645;28;20658;-70
2023/01/22 17:33:02;;;;;;;9.05;7.18;;;;;;;;;;4975686;28;20199;-70
2023/01/22 17:35:29;;;;;;;10.00;7.63;;;;;;;;;;4975337;28;20195;-70
2023/01/22 17:37:57;;;;;;;10.57;7.60;;;;;;;;;;4975286;28;20543;-71
2023/01/22 17:40:25;;;;;;;9.65;7.50;;;;;;;;;;4975450;28;20207;-71
2023/01/22 17:42:52;;;;;;;10.82;8.13;;;;;;;;;;4974463;28;20246;-71
2023/01/22 17:45:19;;;;;;;9.95;7.90;;;;;;;;;;4975357;28;20204;-70
2023/01/22 17:47:46;;;;;;;10.80;8.40;;;;;;;;;;4975410;28;20219;-70
2023/01/22 17:50:13;;;;;;;8.25;6.97;;;;;;;;;;4975599;28;20259;-71
2023/01/22 17:52:40;;;;;;;11.40;7.53;;;;;;;;;;4975338;28;20614;-71
2023/01/22 17:55:09;;;;;;;9.43;7.95;;;;;;;;;;4975274;28;20210;-71
2023/01/22 17:57:36;;;;;;;11.48;9.32;;;;;;;;;;4974895;28;20707;-71
2023/01/22 18:00:04;;;;;;;13.27;9.52;;;;;;;;;;4975182;28;20254;-71
2023/01/22 18:02:31;;;;;;;13.52;10.23;;;;;;;;;;4975070;28;20574;-71
2023/01/22 18:04:58;;;;;;;12.18;9.32;;;;;;;;;;4975158;28;20214;-71
2023/01/22 18:07:25;;;;;;;11.57;9.20;;;;;;;;;;4975235;28;20219;-69
2023/01/22 18:09:52;;;;;;;13.27;9.30;;;;;;;;;;4975029;28;20207;-69
2023/01/22 18:12:20;;;;;;;14.95;11.05;;;;;;;;;;4976060;28;20606;-70
2023/01/22 18:14:47;;;;;;;17.20;10.63;;;;;;;;;;4976563;28;20210;-69
2023/01/22 18:17:14;;;;;;;13.85;9.13;;;;;;;;;;4975186;28;20227;-70
2023/01/22 18:19:41;;;;;;;9.80;8.48;;;;;;;;;;4974761;28;20582;-70
2023/01/22 18:22:08;;;;;;;8.95;8.05;;;;;;;;;;4975070;28;20199;-70
2023/01/22 18:24:35;;;;;;;11.15;8.25;;;;;;;;;;4974934;28;20218;-70
2023/01/22 18:27:02;;;;;;;9.57;7.72;;;;;;;;;;4974862;28;20296;-69
2023/01/22 18:29:31;;;;;;;9.43;7.82;;;;;;;;;;4974946;28;20203;-71
2023/01/22 18:31:58;;;;;;;11.52;8.38;;;;;;;;;;4974867;28;20571;-69
2023/01/22 18:34:25;;;;;;;12.55;9.13;;;;;;;;;;4975099;28;20199;-69
2023/01/22 18:36:52;;;;;;;9.23;7.85;;;;;;;;;;4974618;28;20285;-71
2023/01/22 18:39:20;;;;;;;8.75;7.38;;;;;;;;;;4974506;28;20207;-70
2023/01/22 18:41:47;;;;;;;10.68;7.75;;;;;;;;;;4974555;28;20569;-72
2023/01/22 18:44:16;;;;;;;10.50;7.60;;;;;;;;;;4974641;28;20312;-71
2023/01/22 18:46:46;;;;;;;11.27;8.23;;;;;;;;;;4974814;28;20258;-69
2023/01/22 18:49:15;;;;;;;11.13;8.15;;;;;;;;;;4974642;28;20191;-70
2023/01/22 18:51:43;;;;;;;14.80;9.88;;;;;;;;;;4974610;28;20208;-70
2023/01/22 18:54:11;;;;;;;14.43;9.77;;;;;;;;;;4976788;28;20678;-70
2023/01/22 18:56:38;;;;;;;11.07;8.48;;;;;;;;;;4978128;28;20270;-70
2023/01/22 18:59:05;;;;;;;10.90;8.77;;;;;;;;;;4978380;28;20294;-70
2023/01/22 19:01:33;;;;;;;10.73;8.55;;;;;;;;;;4978339;28;20254;-71
2023/01/22 19:04:04;;;;;;;13.50;9.50;;;;;;;;;;4978159;28;20204;-70
2023/01/22 19:06:31;;;;;;;13.65;10.15;;;;;;;;;;4978132;28;20282;-71
2023/01/22 19:09:01;;;;;;;14.20;12.30;;;;;;;;;;4978143;28;20199;-69
2023/01/22 19:11:28;;;;;;;11.90;9.00;;;;;;;;;;4978116;28;20293;-70
2023/01/22 19:13:56;;;;;;;8.75;7.85;;;;;;;;;;4978295;28;20207;-70
2023/01/22 19:16:24;;;;;;;14.38;10.40;;;;;;;;;;4977894;28;20230;-70
2023/01/22 19:18:54;;;;;;;13.13;9.60;;;;;;;;;;4977976;28;20254;-69
2023/01/22 19:21:23;;;;;;;10.95;8.82;;;;;;;;;;4977814;28;20235;-70
2023/01/22 19:23:51;;;;;;;11.70;9.80;;;;;;;;;;4977783;28;20258;-70
2023/01/22 19:26:20;;;;;;;12.70;9.55;;;;;;;;;;4977741;28;20282;-71
2023/01/22 19:28:47;;;;;;;12.15;9.07;;;;;;;;;;4977407;28;20608;-71
2023/01/22 19:31:15;;;;;;;10.60;8.85;;;;;;;;;;4977690;28;20206;-71
2023/01/22 19:33:42;;;;;;;13.25;8.88;;;;;;;;;;4977533;28;20206;-70
2023/01/22 19:36:10;;;;;;;9.65;7.85;;;;;;;;;;4977257;28;20301;-69
2023/01/22 19:38:38;;;;;;;12.93;10.10;;;;;;;;;;4977570;28;20211;-69
2023/01/22 19:41:06;;;;;;;13.25;9.30;;;;;;;;;;4977852;28;20207;-70
2023/01/22 19:43:33;;;;;;;10.52;9.07;;;;;;;;;;4977490;28;20203;-70
2023/01/22 19:46:02;;;;;;;11.98;9.90;;;;;;;;;;4977340;28;20281;-71
2023/01/22 19:48:30;;;;;;;16.20;11.55;;;;;;;;;;4977048;28;20220;-70
2023/01/22 19:51:00;;;;;;;18.77;12.65;;;;;;;;;;4977101;28;20622;-71
2023/01/22 19:53:27;;;;;;;19.10;12.90;;;;;;;;;;4977253;28;20204;-70
2023/01/22 19:55:56;;;;;;;20.95;11.57;;;;;;;;;;4977251;28;20223;-70
2023/01/22 19:58:24;;;;;;;12.68;9.85;;;;;;;;;;4977289;28;20222;-71
2023/01/22 20:00:53;;;;;;;12.10;9.07;;;;;;;;;;4977090;28;20207;-70
2023/01/22 20:03:20;;;;;;;11.85;9.60;;;;;;;;;;4977005;28;20573;-69
2023/01/22 20:05:48;;;;;;;14.73;10.00;;;;;;;;;;4975807;28;20403;-70
2023/01/22 20:08:15;;;;;;;11.52;9.27;;;;;;;;;;4977073;28;20227;-70
2023/01/22 20:10:42;;;;;;;12.18;8.98;;;;;;;;;;4977933;28;20229;-71
2023/01/22 20:13:12;;;;;;;13.13;9.40;;;;;;;;;;4977150;28;20234;-72
2023/01/22 20:15:39;;;;;;;10.73;9.10;;;;;;;;;;4976988;28;20694;-69
2023/01/22 20:18:07;;;;;;;11.18;8.40;;;;;;;;;;4977864;28;20207;-70
2023/01/22 20:20:34;;;;;;;12.52;9.18;;;;;;;;;;4977077;28;20281;-70
2023/01/22 20:23:01;;;;;;;8.85;7.90;;;;;;;;;;4976864;28;20210;-70
2023/01/22 20:25:30;;;;;;;10.57;8.30;;;;;;;;;;4976555;28;20679;-71
2023/01/22 20:27:57;;;;;;;12.43;9.10;;;;;;;;;;4976861;28;20255;-71
2023/01/22 20:30:26;;;;;;;14.35;10.05;;;;;;;;;;4976594;28;20305;-70
2023/01/22 20:32:53;;;;;;;14.45;10.25;;;;;;;;;;4976448;28;20212;-70
2023/01/22 20:35:20;;;;;;;12.07;9.52;;;;;;;;;;4976496;28;20203;-70
2023/01/22 20:37:47;;;;;;;12.35;9.35;;;;;;;;;;4976591;28;20188;-70
2023/01/22 20:40:14;;;;;;;10.85;8.63;;;;;;;;;;4976346;28;20695;-70
2023/01/22 20:42:41;;;;;;;11.07;8.90;;;;;;;;;;4976102;28;20613;-70
2023/01/22 20:45:08;;;;;;;11.65;8.93;;;;;;;;;;4976489;28;20254;-72
2023/01/22 20:47:37;;;;;;;12.52;9.85;;;;;;;;;;4976327;28;20262;-70
2023/01/22 20:50:05;;;;;;;10.88;9.25;;;;;;;;;;4976047;28;20694;-70
2023/01/22 20:52:32;;;;;;;14.05;8.13;;;;;;;;;;4976321;28;20289;-73
2023/01/22 20:55:00;;;;;;;12.65;8.88;;;;;;;;;;4976257;28;20211;-69
2023/01/22 20:57:27;;;;;;;11.70;9.10;;;;;;;;;;4976178;28;20251;-70
2023/01/22 20:59:54;;;;;;;13.73;10.88;;;;;;;;;;4976215;28;20277;-71
2023/01/22 21:02:21;;;;;;;13.85;10.73;;;;;;;;;;4976080;28;20203;-69
2023/01/22 21:04:52;;;;;;;10.90;9.35;;;;;;;;;;4976011;28;20253;-70
2023/01/22 21:07:19;;;;;;;10.32;8.20;;;;;;;;;;4975826;28;20310;-70
2023/01/22 21:09:46;;;;;;;11.15;8.80;;;;;;;;;;4976003;28;20207;-70
2023/01/22 21:12:13;;;;;;;12.43;8.38;;;;;;;;;;4976738;28;20214;-69
2023/01/22 21:14:40;;;;;;;13.02;9.32;;;;;;;;;;4975769;28;20203;-70
2023/01/22 21:17:07;;;;;;;12.13;9.40;;;;;;;;;;4975878;28;20227;-72
2023/01/22 21:19:34;;;;;;;10.05;8.60;;;;;;;;;;4975752;28;20262;-73
2023/01/22 21:22:03;;;;;;;14.63;9.88;;;;;;;;;;4975367;28;20199;-73
2023/01/22 21:24:31;;;;;;;13.27;10.15;;;;;;;;;;4975651;28;20245;-72
2023/01/22 21:26:59;;;;;;;12.95;9.85;;;;;;;;;;4975459;28;20587;-72
2023/01/22 21:29:26;;;;;;;12.32;9.32;;;;;;;;;;4975547;28;20623;-72
2023/01/22 21:31:53;;;;;;;14.77;10.43;;;;;;;;;;4975649;28;20199;-72
2023/01/22 21:34:21;;;;;;;13.63;9.75;;;;;;;;;;4975693;28;20207;-72